Ohshima Kazumaru — JD2908 — position and weather

sailwx.info

Track history (hours):
 
Tides and Currents Weather Stations Pressure Air Temp Water Temp Dewpoint Dewpoint Depression Visibility Wind Speed Wind Dir Waves Ship Positions

Ohshima Kazumaru

Last reported at 2015-Feb-26 10:27 UTC. Time now 2015-Mar-02 05:05 UTC.
Position N 34°08' E 134°45'.

Length 69 m; draft 4 m.

Type: Cargo ship. MMSI: 431000925.

Date/timePositionNaut miles runAvg speedWind from/ knotsBaromVisibWave heightAir tempDewpointWater temp
2015-Feb-26 10:27N 34°08' E 134°45'1310.1
2015-Feb-26 09:09N 33°57' E 134°55'24010.6
2015-Feb-25 10:25N 35°04' E 139°35'1112.7
2015-Feb-25 09:33N 35°11' E 139°45'1111.3
2015-Feb-25 08:33N 35°22' E 139°42'1312.5
2015-Feb-25 07:30N 35°32' E 139°54'7 0.6
2015-Feb-24 19:21N 35°26' E 139°48'810.0
2015-Feb-24 18:34N 35°19' E 139°44'1111.0
2015-Feb-24 17:33N 35°08' E 139°46'1211.5
2015-Feb-24 16:32N 35°00' E 139°36'  
2015-Feb-20 12:11N 34°07' E 134°46'244 9.9
2015-Feb-19 11:31N 35°04' E 139°35'1212.4
2015-Feb-19 10:32N 35°12' E 139°46'1212.2
2015-Feb-19 09:33N 35°24' E 139°42'9 4.1
2015-Feb-19 07:25N 35°32' E 139°47'0 0.0
2015-Feb-19 06:30N 35°32' E 139°47'0 0.0
2015-Feb-19 03:05N 35°32' E 139°47'0 0.0
2015-Feb-17 22:27N 35°32' E 139°47'2 0.3
2015-Feb-17 14:18N 35°30' E 139°49'0 0.0
2015-Feb-17 10:27N 35°30' E 139°49'0 0.0
2015-Feb-17 06:27N 35°30' E 139°49'0 0.0
2015-Feb-17 05:09N 35°30' E 139°49'0 0.0
2015-Feb-17 04:30N 35°30' E 139°49'0 0.0
2015-Feb-17 03:33N 35°30' E 139°49'0 0.0
2015-Feb-16 23:28N 35°30' E 139°49'0 0.0
2015-Feb-16 22:33N 35°30' E 139°49'0 0.0
2015-Feb-16 21:24N 35°30' E 139°49'0 0.0
2015-Feb-16 20:29N 35°30' E 139°49'0 0.0
2015-Feb-16 19:32N 35°30' E 139°49'0 0.1
2015-Feb-16 18:33N 35°30' E 139°49'0 0.0
2015-Feb-16 17:33N 35°30' E 139°49'0 0.0
2015-Feb-16 16:30N 35°30' E 139°49'0 0.0
2015-Feb-16 15:28N 35°30' E 139°49'6 6.7
2015-Feb-16 14:32N 35°25' E 139°46'1111.5
2015-Feb-16 13:33N 35°14' E 139°47'1111.4
2015-Feb-16 12:33N 35°04' E 139°39'  
Track history (hours):
 
Tides and Currents Weather Stations Pressure Air Temp Water Temp Dewpoint Dewpoint Depression Visibility Wind Speed Wind Dir Waves Ship Positions

Ohshima Kazumaru

Last reported at 2015-Feb-26 10:27 UTC. Time now 2015-Mar-02 05:05 UTC.
Position N 34°08' E 134°45'.

Length 69 m; draft 4 m.

Type: Cargo ship. MMSI: 431000925.

Date/timePositionNaut miles runAvg speedWind from/ knotsBaromVisibWave heightAir tempDewpointWater temp
2015-Feb-26 10:27N 34°08' E 134°45'1310.1
2015-Feb-26 09:09N 33°57' E 134°55'24010.6
2015-Feb-25 10:25N 35°04' E 139°35'1112.7
2015-Feb-25 09:33N 35°11' E 139°45'1111.3
2015-Feb-25 08:33N 35°22' E 139°42'1312.5
2015-Feb-25 07:30N 35°32' E 139°54'7 0.6
2015-Feb-24 19:21N 35°26' E 139°48'810.0
2015-Feb-24 18:34N 35°19' E 139°44'1111.0
2015-Feb-24 17:33N 35°08' E 139°46'1211.5
2015-Feb-24 16:32N 35°00' E 139°36'  
2015-Feb-20 12:11N 34°07' E 134°46'244 9.9
2015-Feb-19 11:31N 35°04' E 139°35'1212.4
2015-Feb-19 10:32N 35°12' E 139°46'1212.2
2015-Feb-19 09:33N 35°24' E 139°42'9 4.1
2015-Feb-19 07:25N 35°32' E 139°47'0 0.0
2015-Feb-19 06:30N 35°32' E 139°47'0 0.0
2015-Feb-19 03:05N 35°32' E 139°47'0 0.0
2015-Feb-17 22:27N 35°32' E 139°47'2 0.3
2015-Feb-17 14:18N 35°30' E 139°49'0 0.0
2015-Feb-17 10:27N 35°30' E 139°49'0 0.0
2015-Feb-17 06:27N 35°30' E 139°49'0 0.0
2015-Feb-17 05:09N 35°30' E 139°49'0 0.0
2015-Feb-17 04:30N 35°30' E 139°49'0 0.0
2015-Feb-17 03:33N 35°30' E 139°49'0 0.0
2015-Feb-16 23:28N 35°30' E 139°49'0 0.0
2015-Feb-16 22:33N 35°30' E 139°49'0 0.0
2015-Feb-16 21:24N 35°30' E 139°49'0 0.0
2015-Feb-16 20:29N 35°30' E 139°49'0 0.0
2015-Feb-16 19:32N 35°30' E 139°49'0 0.1
2015-Feb-16 18:33N 35°30' E 139°49'0 0.0
2015-Feb-16 17:33N 35°30' E 139°49'0 0.0
2015-Feb-16 16:30N 35°30' E 139°49'0 0.0
2015-Feb-16 15:28N 35°30' E 139°49'6 6.7
2015-Feb-16 14:32N 35°25' E 139°46'1111.5
2015-Feb-16 13:33N 35°14' E 139°47'1111.4
2015-Feb-16 12:33N 35°04' E 139°39'  

Dump ship's entire track history